Time;durP1;ratioP1;P1;durP2;ratioP2;P2;SDS_P1;SDS_P2;PMS_P1;PMS_P2;Temp;Humidity;BMP_temperature;BMP_pressure;BME280_temperature;BME280_humidity;BME280_pressure;Samples;Min_cycle;Max_cycle;Signal;HPM_P1;HPM_P2
2022/10/24 00:06:40;;;;;;;12.98;5.53;;;17.10;80.20;;;;;;21178481;28;20044;-62
2022/10/24 00:16:42;;;;;;;7.40;3.88;;;17.10;79.90;;;;;;21177167;28;20130;-64
2022/10/24 00:26:44;;;;;;;10.30;4.95;;;17.10;79.90;;;;;;21178133;28;20377;-63
2022/10/24 00:36:45;;;;;;;6.20;4.38;;;16.90;80.40;;;;;;21176470;28;20410;-62
2022/10/24 00:46:52;;;;;;;9.90;4.35;;;16.80;80.30;;;;;;21172293;28;20102;-62
2022/10/24 00:57:11;;;;;;;6.95;4.65;;;16.70;80.20;;;;;;21169730;28;20058;-63
2022/10/24 01:07:23;;;;;;;8.25;4.72;;;16.70;80.30;;;;;;21169527;28;20451;-62
2022/10/24 01:17:31;;;;;;;10.90;4.57;;;16.40;81.30;;;;;;21149902;28;20165;-62
2022/10/24 01:27:59;;;;;;;9.35;4.35;;;16.40;81.20;;;;;;21167953;28;20043;-61
2022/10/24 01:38:10;;;;;;;11.60;5.65;;;16.40;80.70;;;;;;21168182;28;20067;-63
2022/10/24 01:48:19;;;;;;;11.23;5.03;;;16.20;81.20;;;;;;21148034;28;162489;-63
2022/10/24 01:58:21;;;;;;;11.70;5.68;;;16.20;80.80;;;;;;21173034;28;20132;-64
2022/10/24 02:08:33;;;;;;;11.02;6.32;;;16.20;80.90;;;;;;21169390;28;20052;-63
2022/10/24 02:18:36;;;;;;;9.57;6.15;;;16.20;81.00;;;;;;21167014;28;20051;-63
2022/10/24 02:28:44;;;;;;;10.23;5.20;;;16.20;81.00;;;;;;21168445;28;20048;-62
2022/10/24 02:38:49;;;;;;;9.63;6.22;;;16.10;81.40;;;;;;21166116;28;20051;-62
2022/10/24 02:48:58;;;;;;;9.27;5.78;;;16.10;81.40;;;;;;21165672;28;20402;-62
2022/10/24 02:59:01;;;;;;;10.80;6.20;;;16.20;81.10;;;;;;21164858;28;20059;-64
2022/10/24 03:09:07;;;;;;;12.68;6.07;;;16.20;81.40;;;;;;21164179;28;20048;-63
2022/10/24 03:19:10;;;;;;;9.00;5.88;;;16.10;81.40;;;;;;21163608;28;20434;-62
2022/10/24 03:29:14;;;;;;;11.68;6.10;;;16.20;81.30;;;;;;21162931;28;20047;-62
2022/10/24 03:39:16;;;;;;;10.05;5.95;;;16.20;81.10;;;;;;21163592;28;20054;-63
2022/10/24 03:49:19;;;;;;;13.18;6.20;;;16.10;81.20;;;;;;21162047;28;20056;-61
2022/10/24 03:59:25;;;;;;;10.27;5.53;;;15.90;81.50;;;;;;21162454;28;20482;-62
2022/10/24 04:09:28;;;;;;;10.00;5.85;;;15.80;81.60;;;;;;21161135;28;20191;-65
2022/10/24 04:19:30;;;;;;;7.00;5.03;;;15.90;81.00;;;;;;21161243;28;20083;-62
2022/10/24 04:29:32;;;;;;;9.35;5.80;;;15.70;80.70;;;;;;21162415;28;20044;-62
2022/10/24 04:39:35;;;;;;;7.55;5.30;;;15.50;81.10;;;;;;21170005;28;20062;-62
2022/10/24 04:49:40;;;;;;;7.97;5.20;;;15.50;81.20;;;;;;21175213;28;20109;-62
2022/10/24 04:59:42;;;;;;;9.32;6.07;;;15.50;81.10;;;;;;21175033;28;20044;-63
2022/10/24 05:09:44;;;;;;;7.65;4.97;;;15.30;81.30;;;;;;21174449;28;20525;-61
2022/10/24 05:19:46;;;;;;;12.38;7.00;;;15.40;81.40;;;;;;21154746;28;20082;-65
2022/10/24 05:29:49;;;;;;;14.05;6.38;;;15.50;81.40;;;;;;21173619;28;20047;-62
2022/10/24 05:39:50;;;;;;;11.25;7.40;;;15.40;81.30;;;;;;21171102;28;20504;-62
2022/10/24 05:49:52;;;;;;;11.85;6.40;;;15.40;81.80;;;;;;21168900;28;20135;-62
2022/10/24 05:59:54;;;;;;;12.02;6.97;;;15.30;81.90;;;;;;21169295;28;20055;-63
2022/10/24 06:09:56;;;;;;;9.52;6.30;;;15.30;81.80;;;;;;21169186;28;20134;-62
2022/10/24 06:19:57;;;;;;;13.57;7.22;;;15.40;81.50;;;;;;21167509;28;20142;-64
2022/10/24 06:29:59;;;;;;;11.18;6.53;;;15.50;81.00;;;;;;21168017;28;20044;-63
2022/10/24 06:40:01;;;;;;;12.95;7.45;;;15.40;81.30;;;;;;21167153;28;20142;-62
2022/10/24 06:50:04;;;;;;;12.05;6.50;;;15.40;81.40;;;;;;21165489;28;20051;-62
2022/10/24 07:00:07;;;;;;;24.05;8.95;;;15.60;81.40;;;;;;21164279;28;20056;-64
2022/10/24 07:10:12;;;;;;;15.47;9.73;;;15.70;81.50;;;;;;21165238;28;20043;-62
2022/10/24 07:20:14;;;;;;;23.25;7.10;;;15.80;81.70;;;;;;21145781;28;20092;-60
2022/10/24 07:30:17;;;;;;;8.98;6.07;;;15.80;80.00;;;;;;21163440;28;20093;-63
2022/10/24 07:40:19;;;;;;;13.50;5.73;;;15.70;79.50;;;;;;21163153;28;20100;-62
2022/10/24 07:50:20;;;;;;;9.82;6.60;;;15.60;79.30;;;;;;21162389;28;20395;-62
2022/10/24 08:00:23;;;;;;;11.43;6.25;;;15.60;79.40;;;;;;21162129;28;20441;-63
2022/10/24 08:10:25;;;;;;;14.75;7.80;;;15.70;79.60;;;;;;21166293;28;20047;-62
2022/10/24 08:20:26;;;;;;;11.45;6.10;;;15.80;79.40;;;;;;21179507;28;20479;-64
2022/10/24 08:30:28;;;;;;;13.50;6.65;;;16.00;78.80;;;;;;21176764;28;20071;-62
2022/10/24 08:40:30;;;;;;;10.30;5.78;;;16.20;78.30;;;;;;21177218;28;20055;-62
2022/10/24 08:50:34;;;;;;;38.78;24.80;;;16.30;77.90;;;;;;21174953;28;20055;-63
2022/10/24 09:00:45;;;;;;;6.40;3.43;;;16.50;76.90;;;;;;21175212;28;20052;-65
2022/10/24 09:10:58;;;;;;;11.10;5.38;;;18.10;70.50;;;;;;21171159;28;20488;-63
2022/10/24 09:21:01;;;;;;;11.37;4.90;;;19.10;67.00;;;;;;21160850;28;20101;-66
2022/10/24 09:31:15;;;;;;;12.30;5.15;;;19.40;65.70;;;;;;21170438;28;20051;-62
2022/10/24 09:41:22;;;;;;;19.90;6.07;;;19.70;64.70;;;;;;21167262;28;20048;-64
2022/10/24 09:51:40;;;;;;;11.35;6.35;;;19.70;64.00;;;;;;21170020;28;20054;-65
2022/10/24 10:01:41;;;;;;;14.48;6.30;;;18.40;69.30;;;;;;21170104;28;20055;-61
2022/10/24 10:11:43;;;;;;;12.15;4.65;;;18.00;70.40;;;;;;21167171;28;20051;-60
2022/10/24 10:21:53;;;;;;;11.18;4.53;;;19.00;67.10;;;;;;21149126;28;20047;-61
2022/10/24 10:32:22;;;;;;;12.10;3.63;;;19.30;64.60;;;;;;21165191;28;20062;-61
2022/10/24 10:42:42;;;;;;;13.95;4.00;;;18.70;64.80;;;;;;21165915;28;20510;-61
2022/10/24 10:52:49;;;;;;;9.43;2.42;;;18.40;64.10;;;;;;21165573;28;20052;-64
2022/10/24 11:03:02;;;;;;;9.55;2.55;;;18.70;65.80;;;;;;21164383;28;20051;-65
2022/10/24 11:13:12;;;;;;;8.27;2.22;;;19.70;60.70;;;;;;21163774;28;20128;-68
2022/10/24 11:23:39;;;;;;;9.05;1.98;;;20.10;59.10;;;;;;21164580;28;20132;-71
2022/10/24 11:34:09;;;;;;;11.90;2.55;;;20.20;57.50;;;;;;21161989;28;20048;-70
2022/10/24 11:44:20;;;;;;;10.95;2.60;;;20.50;56.00;;;;;;21162115;28;20483;-62
2022/10/24 11:54:32;;;;;;;10.35;2.10;;;20.50;54.80;;;;;;21161545;28;20047;-61
2022/10/24 12:04:52;;;;;;;10.40;2.30;;;20.50;55.00;;;;;;21182506;28;20050;-67
2022/10/24 12:15:30;;;;;;;7.53;2.60;;;20.50;55.40;;;;;;21178460;28;20055;-68
2022/10/24 12:25:34;;;;;;;9.55;2.55;;;20.70;55.30;;;;;;21178175;28;20363;-63
2022/10/24 12:35:45;;;;;;;13.85;5.18;;;20.00;56.20;;;;;;21177620;28;20058;-63
2022/10/24 12:45:47;;;;;;;11.63;3.22;;;19.70;57.10;;;;;;21176171;28;20065;-63
2022/10/24 12:55:48;;;;;;;10.02;2.45;;;19.40;58.30;;;;;;21175730;28;20048;-63
2022/10/24 13:05:56;;;;;;;11.13;3.10;;;19.40;58.40;;;;;;21174167;28;20069;-63
2022/10/24 13:16:06;;;;;;;12.75;3.17;;;19.50;59.20;;;;;;21173598;28;20060;-63
2022/10/24 13:26:29;;;;;;;10.68;3.25;;;19.60;58.90;;;;;;21155264;28;20043;-62
2022/10/24 13:36:33;;;;;;;10.00;3.17;;;19.50;58.30;;;;;;21171681;28;20052;-62
2022/10/24 13:46:47;;;;;;;8.27;2.27;;;19.40;59.00;;;;;;21153070;28;20058;-65
2022/10/24 13:56:51;;;;;;;10.75;2.85;;;19.40;58.00;;;;;;21169405;28;20299;-63
2022/10/24 14:07:04;;;;;;;5.80;1.90;;;19.40;58.30;;;;;;21166976;28;20043;-63
2022/10/24 14:17:27;;;;;;;8.93;2.22;;;19.60;57.30;;;;;;21169366;28;20059;-63
2022/10/24 14:27:29;;;;;;;11.27;2.35;;;19.50;57.70;;;;;;21167784;28;20066;-65
2022/10/24 14:37:35;;;;;;;12.57;3.13;;;19.50;58.10;;;;;;21168023;28;20056;-62
2022/10/24 14:47:38;;;;;;;7.78;2.55;;;19.50;58.30;;;;;;21166450;28;20130;-62
2022/10/24 14:57:47;;;;;;;9.32;2.35;;;19.60;57.90;;;;;;21168315;28;20048;-65
2022/10/24 15:07:55;;;;;;;8.25;2.30;;;19.50;58.20;;;;;;21165489;28;20399;-63
2022/10/24 15:18:08;;;;;;;12.48;2.63;;;19.60;58.10;;;;;;21166661;28;20404;-62
2022/10/24 15:28:53;;;;;;;6.90;1.63;;;19.50;58.30;;;;;;21164403;28;20044;-64
2022/10/24 15:39:00;;;;;;;7.32;2.03;;;19.60;57.70;;;;;;20905959;28;20048;-65
2022/10/24 15:49:02;;;;;;;7.18;1.77;;;19.50;58.50;;;;;;20906919;28;20052;-70
2022/10/24 15:59:04;;;;;;;5.03;1.70;;;20.10;57.60;;;;;;20842868;28;20049;-72
2022/10/24 16:09:26;;;;;;;6.32;1.70;;;20.30;56.10;;;;;;20888691;28;20048;-66
2022/10/24 16:19:28;;;;;;;19.40;7.60;;;20.40;56.10;;;;;;21161475;28;20135;-69
2022/10/24 16:29:29;;;;;;;6.15;2.40;;;20.40;56.30;;;;;;21164732;28;20434;-67
2022/10/24 16:39:32;;;;;;;7.55;2.38;;;20.50;56.10;;;;;;21160369;28;20459;-70
2022/10/24 16:49:34;;;;;;;9.37;3.27;;;20.60;56.40;;;;;;21175937;28;20147;-71
2022/10/24 16:59:35;;;;;;;8.05;2.22;;;20.60;56.30;;;;;;21174494;28;20079;-62
2022/10/24 17:09:38;;;;;;;8.68;2.75;;;20.70;56.80;;;;;;21172947;28;20089;-65
2022/10/24 17:19:40;;;;;;;6.65;3.17;;;20.60;57.40;;;;;;21174137;28;20407;-67
2022/10/24 17:29:42;;;;;;;7.32;3.88;;;20.50;58.10;;;;;;21173298;28;20116;-65
2022/10/24 17:40:04;;;;;;;9.07;3.80;;;20.80;57.30;;;;;;21173725;28;20520;-67
2022/10/24 17:50:06;;;;;;;10.65;4.20;;;20.70;56.70;;;;;;21171890;28;20052;-69
2022/10/24 18:00:08;;;;;;;7.07;3.00;;;20.70;57.10;;;;;;21173098;28;20047;-69
2022/10/24 18:10:12;;;;;;;7.93;3.57;;;20.60;57.10;;;;;;21175198;28;20407;-69
2022/10/24 18:20:14;;;;;;;7.45;3.80;;;20.60;56.70;;;;;;21169088;28;20403;-65
2022/10/24 18:30:16;;;;;;;12.10;4.60;;;20.60;57.10;;;;;;21167831;28;20043;-68
2022/10/24 18:40:18;;;;;;;5.72;2.85;;;20.50;57.40;;;;;;21166723;28;20047;-60
2022/10/24 18:50:23;;;;;;;9.50;3.78;;;19.40;60.20;;;;;;21165705;28;20051;-66
2022/10/24 19:00:27;;;;;;;10.85;3.05;;;18.90;62.10;;;;;;21165280;28;20044;-64
2022/10/24 19:10:29;;;;;;;9.30;3.40;;;18.70;62.70;;;;;;21164637;28;20044;-65
2022/10/24 19:20:32;;;;;;;8.32;3.95;;;18.60;63.40;;;;;;21163815;28;20063;-64
2022/10/24 19:30:34;;;;;;;6.77;3.73;;;18.50;63.90;;;;;;21163491;28;20051;-62
2022/10/24 19:40:35;;;;;;;11.13;3.92;;;18.30;64.40;;;;;;21162777;28;20086;-67
2022/10/24 19:50:37;;;;;;;11.00;4.97;;;18.30;64.90;;;;;;21162227;28;20043;-64
2022/10/24 20:00:39;;;;;;;10.88;4.07;;;18.20;65.70;;;;;;21162990;28;20508;-64
2022/10/24 20:10:48;;;;;;;10.23;4.18;;;18.10;66.10;;;;;;21172211;28;20043;-64
2022/10/24 20:20:51;;;;;;;10.63;4.97;;;18.10;66.40;;;;;;21177916;28;20100;-63
2022/10/24 20:30:53;;;;;;;12.68;4.03;;;18.10;66.80;;;;;;21177355;28;20043;-63
2022/10/24 20:41:00;;;;;;;11.50;4.55;;;18.10;65.80;;;;;;21176422;28;20058;-61
2022/10/24 20:51:11;;;;;;;13.23;5.47;;;18.20;64.80;;;;;;21175447;28;20097;-64
2022/10/24 21:01:17;;;;;;;11.57;5.38;;;18.10;66.60;;;;;;21175314;28;20043;-66
2022/10/24 21:11:26;;;;;;;10.90;4.88;;;18.00;67.40;;;;;;21174574;28;20043;-64
2022/10/24 21:21:28;;;;;;;27.70;16.50;;;17.90;67.80;;;;;;21174291;28;20394;-63
2022/10/24 21:31:30;;;;;;;10.68;4.30;;;17.80;67.90;;;;;;21172846;28;20138;-66
2022/10/24 21:41:32;;;;;;;8.43;3.80;;;17.70;68.10;;;;;;21173518;28;20142;-63
2022/10/24 21:51:36;;;;;;;12.27;4.75;;;17.70;68.20;;;;;;21171494;28;20070;-65
2022/10/24 22:01:38;;;;;;;12.57;4.20;;;17.60;68.30;;;;;;21170816;28;20453;-62
2022/10/24 22:11:41;;;;;;;16.83;4.35;;;17.60;68.70;;;;;;21170820;28;20101;-65
2022/10/24 22:21:45;;;;;;;11.18;3.97;;;17.60;68.60;;;;;;21168814;28;20112;-65
2022/10/24 22:31:48;;;;;;;8.82;3.80;;;17.50;69.00;;;;;;21167534;28;20051;-61
2022/10/24 22:41:52;;;;;;;8.90;3.15;;;17.40;69.50;;;;;;21166972;28;20510;-64
2022/10/24 22:51:54;;;;;;;16.60;9.70;;;17.40;69.70;;;;;;21166330;28;20431;-62
2022/10/24 23:02:03;;;;;;;10.38;4.72;;;17.40;69.90;;;;;;21166114;28;20407;-66
2022/10/24 23:12:12;;;;;;;8.35;3.50;;;17.40;70.30;;;;;;21164826;28;20372;-63
2022/10/24 23:22:14;;;;;;;8.77;3.13;;;17.30;70.40;;;;;;21164534;28;20055;-63
2022/10/24 23:32:21;;;;;;;7.43;2.95;;;17.20;70.70;;;;;;21164042;28;20087;-62
2022/10/24 23:42:23;;;;;;;6.85;3.30;;;17.20;70.70;;;;;;21163372;28;20071;-63
2022/10/24 23:52:34;;;;;;;7.22;4.00;;;17.20;70.70;;;;;;21162452;28;20059;-65
